Time;durP1;ratioP1;P1;durP2;ratioP2;P2;SDS_P1;SDS_P2;PMS_P1;PMS_P2;Temp;Humidity;BMP_temperature;BMP_pressure;BME280_temperature;BME280_humidity;BME280_pressure;Samples;Min_cycle;Max_cycle;Signal;HPM_P1;HPM_P2
2022/06/25 00:01:03;;;;;;;33.25;14.25;;;;;;;-143.10;90.81;50877.56;5029832;28;20049;-64
2022/06/25 00:03:53;;;;;;;40.58;14.10;;;;;;;-143.10;90.16;50854.06;5047869;28;20044;-63
2022/06/25 00:06:35;;;;;;;46.60;15.18;;;;;;;-143.10;91.41;50826.66;5047729;28;20480;-64
2022/06/25 00:09:24;;;;;;;45.38;15.68;;;;;;;-143.10;91.74;50889.31;5046933;28;20795;-64
2022/06/25 00:15:14;;;;;;;41.33;15.93;;;;;;;-143.10;92.23;50875.59;5046215;28;20111;-64
2022/06/25 00:18:03;;;;;;;40.97;14.98;;;;;;;-143.10;88.68;50867.75;5046793;28;20115;-65
2022/06/25 00:20:45;;;;;;;45.60;14.48;;;;;;;-143.10;89.28;50854.06;5046839;28;20060;-64
2022/06/25 00:23:40;;;;;;;45.38;16.02;;;;;;;-143.10;88.51;50846.22;5047789;27;20065;-64
2022/06/25 00:26:29;;;;;;;41.50;15.13;;;;;;;-143.10;88.64;50877.56;5046570;28;20770;-64
2022/06/25 00:29:18;;;;;;;41.58;15.20;;;;;;;-143.10;90.50;50879.50;5046093;28;20057;-64
2022/06/25 00:32:00;;;;;;;47.30;17.20;;;;;;;-143.10;90.67;50871.69;5046215;28;20056;-65
2022/06/25 00:34:49;;;;;;;41.67;16.70;;;;;;;-143.10;90.62;50873.63;5028625;28;20061;-64
2022/06/25 00:37:31;;;;;;;41.80;16.15;;;;;;;-143.10;89.66;50859.94;5028549;28;20389;-64
2022/06/25 00:40:20;;;;;;;43.58;15.48;;;;;;;-143.10;90.03;50854.06;5045231;28;20562;-64
2022/06/25 00:43:09;;;;;;;46.80;15.30;;;;;;;-143.10;93.84;50854.06;5046271;28;20049;-64
2022/06/25 00:45:51;;;;;;;38.90;15.57;;;;;;;-143.10;95.06;50879.50;5046433;28;20619;-64
2022/06/25 00:48:40;;;;;;;53.50;15.57;;;;;;;-143.10;93.09;50897.13;5045983;28;20075;-64
2022/06/25 00:51:22;;;;;;;49.58;16.30;;;;;;;-143.10;94.15;50873.63;5048049;28;20366;-64
2022/06/25 00:54:12;;;;;;;49.28;17.45;;;;;;;-143.10;94.44;50891.25;5047948;28;20400;-65
2022/06/25 00:56:58;;;;;;;45.15;16.40;;;;;;;-143.10;93.28;50899.09;5044498;28;20478;-65
2022/06/25 00:59:50;;;;;;;40.78;16.20;;;;;;;-143.10;94.29;50883.44;5046090;28;20041;-64
2022/06/25 01:02:32;;;;;;;32.78;14.85;;;;;;;-143.10;96.14;50883.44;5027563;28;20049;-64
2022/06/25 01:05:27;;;;;;;40.13;14.73;;;;;;;-143.10;94.90;50861.88;5028021;28;20045;-65
2022/06/25 01:08:03;;;;;;;44.88;16.13;;;;;;;-143.10;93.92;50861.88;5027664;28;20119;-64
2022/06/25 01:10:59;;;;;;;50.30;16.65;;;;;;;-143.10;96.79;50877.56;5045869;28;20075;-63
2022/06/25 01:13:35;;;;;;;41.75;15.55;;;;;;;-143.10;92.60;50871.69;5027532;28;20053;-64
2022/06/25 01:16:24;;;;;;;53.05;18.63;;;;;;;-143.10;90.10;50861.88;5045513;28;20333;-64
2022/06/25 01:19:18;;;;;;;47.75;17.40;;;;;;;-143.10;92.59;50861.88;5028105;28;20057;-64
2022/06/25 01:22:05;;;;;;;48.88;20.35;;;;;;;-143.10;89.33;50887.34;5028165;28;20052;-64
2022/06/25 01:24:59;;;;;;;61.28;21.67;;;;;;;-143.10;88.54;50881.47;5011366;28;20053;-65
2022/06/25 01:27:48;;;;;;;56.53;21.45;;;;;;;-143.10;92.55;50877.56;5024596;28;20057;-63
2022/06/25 01:30:39;;;;;;;62.47;24.80;;;;;;;-143.10;90.33;50869.72;5007958;28;20049;-64
2022/06/25 01:33:21;;;;;;;75.35;25.25;;;;;;;-143.10;84.48;50908.88;5025291;28;20537;-64
2022/06/25 01:36:10;;;;;;;58.65;25.40;;;;;;;-143.10;85.83;50848.19;5007407;28;20715;-64
2022/06/25 01:38:52;;;;;;;75.32;25.02;;;;;;;-143.10;81.36;50887.34;5025396;28;20049;-63
2022/06/25 01:41:41;;;;;;;61.03;24.85;;;;;;;-143.10;84.08;50856.03;5024329;28;20053;-64
2022/06/25 01:44:23;;;;;;;64.28;24.85;;;;;;;-143.10;86.99;50850.16;5007315;28;20547;-65
2022/06/25 01:47:12;;;;;;;60.75;22.52;;;;;;;-143.10;86.21;50877.56;5025092;28;20053;-64
2022/06/25 01:50:01;;;;;;;55.92;23.50;;;;;;;-143.10;86.13;50865.81;5005180;28;20135;-65
2022/06/25 01:52:45;;;;;;;59.72;21.30;;;;;;;-143.10;84.74;50881.47;4987964;28;20057;-64
2022/06/25 01:55:34;;;;;;;61.10;20.58;;;;;;;-143.10;80.17;50830.56;5005201;28;20057;-64
2022/06/25 01:58:24;;;;;;;56.75;19.55;;;;;;;-143.10;75.93;50834.47;5003641;28;20049;-64
2022/06/25 02:01:07;;;;;;;57.92;19.85;;;;;;;-143.10;70.41;50842.31;5009489;28;20395;-64
2022/06/25 02:03:56;;;;;;;42.47;15.52;;;;;;;-143.10;72.66;50848.19;5007812;28;20068;-65
2022/06/25 02:06:38;;;;;;;56.00;16.73;;;;;;;-143.10;67.82;50822.75;5007330;28;20421;-65
2022/06/25 02:09:27;;;;;;;40.58;17.33;;;;;;;-143.10;68.88;50854.06;5024446;28;20057;-65
2022/06/25 02:12:17;;;;;;;61.95;22.05;;;;;;;-143.10;65.18;50846.22;5024075;28;20077;-65
2022/06/25 02:14:59;;;;;;;55.60;20.25;;;;;;;-143.10;63.64;50816.88;5004943;28;20052;-65
2022/06/25 02:17:48;;;;;;;55.58;21.23;;;;;;;-143.10;56.14;50791.41;5003107;28;20555;-67
2022/06/25 02:20:30;;;;;;;58.65;21.02;;;;;;;-143.10;62.84;50838.41;5002426;28;20770;-66
2022/06/25 02:23:27;;;;;;;58.85;22.08;;;;;;;-143.10;60.83;50830.56;4985190;28;20116;-66
2022/06/25 02:26:16;;;;;;;59.95;23.15;;;;;;;-143.10;57.02;50822.75;5005265;28;20136;-68
2022/06/25 02:29:12;;;;;;;46.72;20.33;;;;;;;-143.10;60.42;50789.47;5022789;28;20049;-69
2022/06/25 02:31:47;;;;;;;52.92;23.70;;;;;;;-143.10;61.98;50811.00;5023585;28;20047;-67
2022/06/25 02:34:42;;;;;;;69.57;22.83;;;;;;;-143.10;56.71;50820.78;5005777;28;20536;-69
2022/06/25 02:37:18;;;;;;;62.17;24.90;;;;;;;-143.10;58.77;50811.00;5022712;28;20041;-68
2022/06/25 02:40:07;;;;;;;58.97;24.25;;;;;;;-143.10;58.67;50814.91;5006137;28;20037;-68
2022/06/25 02:42:52;;;;;;;55.97;21.90;;;;;;;-143.10;56.09;50842.31;5004458;28;20568;-68
2022/06/25 02:45:47;;;;;;;49.97;22.02;;;;;;;-143.10;62.70;50818.81;4997691;28;20049;-71
2022/06/25 02:48:30;;;;;;;60.92;21.80;;;;;;;-143.10;57.34;50807.06;5013599;28;20136;-68
2022/06/25 02:51:21;;;;;;;50.28;18.98;;;;;;;-143.10;55.49;50799.25;5024869;28;20044;-69
2022/06/25 02:54:03;;;;;;;63.23;18.40;;;;;;;-143.10;58.98;50805.13;5025617;28;20049;-69
2022/06/25 03:00:00;;;;;;;52.78;18.90;;;;;;;-143.10;53.14;50787.50;5023985;28;20045;-68
2022/06/25 03:02:57;;;;;;;66.75;17.17;;;;;;;-143.10;56.76;50838.41;5024627;28;20059;-68
2022/06/25 03:05:33;;;;;;;48.95;15.10;;;;;;;-143.10;44.73;50789.47;5024751;28;20040;-68
2022/06/25 03:08:29;;;;;;;40.83;15.35;;;;;;;-143.10;46.32;50795.34;5025196;28;20053;-68
2022/06/25 03:11:04;;;;;;;57.05;14.75;;;;;;;-143.10;53.33;50811.00;5041534;28;20049;-71
2022/06/25 03:14:02;;;;;;;43.75;13.75;;;;;;;-143.10;45.87;50812.94;5024840;28;20059;-68
2022/06/25 03:16:38;;;;;;;40.95;13.02;;;;;;;-143.10;45.56;50809.03;5022430;28;20048;-68
2022/06/25 03:19:35;;;;;;;47.85;13.85;;;;;;;-143.10;44.61;50762.06;5016192;28;20119;-68
2022/06/25 03:22:23;;;;;;;39.95;12.02;;;;;;;-143.10;41.54;50805.13;5025853;28;20048;-68
2022/06/25 03:25:19;;;;;;;40.78;12.00;;;;;;;-143.10;42.84;50795.34;5026486;28;20080;-69
2022/06/25 03:28:11;;;;;;;33.45;11.35;;;;;;;-143.10;45.86;50791.41;5023806;28;20099;-68
2022/06/25 03:31:03;;;;;;;39.28;12.02;;;;;;;-143.10;42.89;50791.41;5006864;28;20057;-68
2022/06/25 03:33:46;;;;;;;50.40;11.25;;;;;;;-143.10;44.99;50795.34;4989732;28;20046;-69
2022/06/25 03:36:51;;;;;;;31.70;10.23;;;;;;;-143.10;40.43;50785.53;5005781;28;20056;-70
2022/06/25 03:39:34;;;;;;;33.00;9.20;;;;;;;-143.10;44.09;50787.50;5025750;28;20033;-68
2022/06/25 03:42:23;;;;;;;31.10;9.15;;;;;;;-143.10;44.07;50799.25;5025322;28;20127;-68
2022/06/25 03:45:15;;;;;;;36.85;11.30;;;;;;;-143.10;37.51;50805.13;5025370;28;20060;-69
2022/06/25 03:48:05;;;;;;;39.97;9.50;;;;;;;-143.10;38.69;50787.50;5019983;28;20128;-68
2022/06/25 03:51:17;;;;;;;32.28;9.90;;;;;;;-143.10;44.77;50793.38;5022996;28;20049;-70
2022/06/25 03:53:59;;;;;;;35.70;10.68;;;;;;;-143.10;41.41;50809.03;5006172;28;20077;-69
2022/06/25 03:56:48;;;;;;;42.25;10.75;;;;;;;-143.10;41.72;50789.47;5006026;28;20049;-68
2022/06/25 03:59:37;;;;;;;33.78;10.70;;;;;;;-143.10;38.91;50789.47;5006922;28;20414;-68
2022/06/25 04:02:31;;;;;;;40.83;10.35;;;;;;;-143.10;38.52;50771.84;4997987;28;20493;-68
2022/06/25 04:05:48;;;;;;;34.50;8.25;;;;;;;-143.10;36.24;50771.84;5002056;28;20075;-68
2022/06/25 04:08:52;;;;;;;33.03;9.13;;;;;;;-143.10;36.47;50781.63;5013571;28;20357;-68
2022/06/25 04:11:36;;;;;;;29.60;8.80;;;;;;;-143.10;35.11;50771.84;5017779;28;20044;-68
2022/06/25 04:14:25;;;;;;;37.70;9.10;;;;;;;-143.10;38.08;50803.16;5025519;28;20049;-68
2022/06/25 04:17:14;;;;;;;33.03;8.32;;;;;;;-143.10;32.40;50807.06;5028627;28;20048;-69
2022/06/25 04:19:56;;;;;;;27.43;7.63;;;;;;;-143.10;37.82;50767.91;5028954;28;20068;-69
2022/06/25 04:22:46;;;;;;;31.73;8.55;;;;;;;-143.10;37.13;50775.75;5023111;28;20041;-69
2022/06/25 04:25:43;;;;;;;29.08;7.35;;;;;;;-143.10;35.59;50775.75;5032510;28;20127;-69
2022/06/25 04:32:01;;;;;;;28.90;7.43;;;;;;;-143.10;37.88;50779.66;5014981;28;20056;-68
2022/06/25 04:35:09;;;;;;;30.25;7.78;;;;;;;-143.10;35.23;50752.25;5030375;28;20119;-69
2022/06/25 04:38:01;;;;;;;30.88;8.15;;;;;;;-143.10;34.96;50771.84;5029214;28;20441;-70
2022/06/25 04:40:57;;;;;;;28.42;8.57;;;;;;;-143.10;33.32;50767.91;5028547;28;20688;-70
2022/06/25 04:43:33;;;;;;;33.17;8.32;;;;;;;-143.10;35.21;50756.19;5045961;28;20049;-70
2022/06/25 04:46:32;;;;;;;24.80;7.60;;;;;;;-143.10;32.74;50771.84;5027979;28;20140;-70
2022/06/25 04:49:22;;;;;;;32.58;6.43;;;;;;;-143.10;36.60;50769.88;5027788;28;20045;-70
2022/06/25 04:52:04;;;;;;;39.88;7.30;;;;;;;-143.10;33.81;50758.13;5029189;28;20045;-70
2022/06/25 04:54:53;;;;;;;25.52;6.53;;;;;;;-143.10;35.58;50803.16;5045224;28;20048;-70
2022/06/25 04:57:42;;;;;;;32.90;6.22;;;;;;;-143.10;30.64;50756.19;5028614;28;20056;-70
2022/06/25 05:00:49;;;;;;;26.27;6.43;;;;;;;-143.10;34.42;50760.09;5046534;28;20145;-69
2022/06/25 05:03:31;;;;;;;20.75;6.40;;;;;;;-143.10;32.48;50765.97;5028307;28;20073;-70
2022/06/25 05:06:21;;;;;;;21.40;6.80;;;;;;;-143.10;34.11;50756.19;5027922;28;20045;-69
2022/06/25 05:09:02;;;;;;;;;;;;;;;-143.10;34.42;50752.25;5029240;28;20103;-71
2022/06/25 05:11:51;;;;;;;26.02;6.63;;;;;;;-143.10;32.15;50748.34;5027880;28;19935;-70
2022/06/25 05:14:50;;;;;;;;;;;;;;;-143.10;32.67;50752.25;5028380;28;20045;-71
2022/06/25 05:17:26;;;;;;;27.23;6.78;;;;;;;-143.10;34.79;50760.09;5027675;28;20066;-71
2022/06/25 05:20:18;;;;;;;24.13;5.82;;;;;;;-143.10;32.95;50756.19;5027740;28;20053;-69
2022/06/25 05:23:00;;;;;;;31.67;7.57;;;;;;;-143.10;33.48;50758.13;5028585;28;20464;-70
2022/06/25 05:25:55;;;;;;;18.67;6.28;;;;;;;-143.10;31.87;50744.44;5046757;28;20049;-70
2022/06/25 05:28:44;;;;;;;39.35;7.80;;;;;;;-143.10;35.96;50736.59;5027591;28;20049;-70
2022/06/25 05:31:33;;;;;;;37.85;6.20;;;;;;;-143.10;33.74;50756.19;5045508;28;20052;-70
2022/06/25 05:34:22;;;;;;;26.25;6.72;;;;;;;-143.10;30.94;50762.06;5045715;28;20044;-70
2022/06/25 05:37:11;;;;;;;27.05;5.03;;;;;;;-143.10;29.37;50744.44;5029221;28;20044;-69
2022/06/25 05:39:53;;;;;;;29.27;5.53;;;;;;;-143.10;32.19;50709.19;5028200;28;20076;-69
2022/06/25 05:42:42;;;;;;;29.05;6.00;;;;;;;-143.10;30.29;50764.00;5045036;28;20073;-69
2022/06/25 05:45:25;;;;;;;;;;;;;;;-143.10;29.39;50736.59;5025370;28;20155;-69
2022/06/25 05:48:13;;;;;;;26.55;5.60;;;;;;;-143.10;31.52;50750.31;5030787;28;19982;-67
2022/06/25 05:51:09;;;;;;;25.33;5.80;;;;;;;-143.10;30.73;50740.50;5045559;28;20075;-68
2022/06/25 05:53:51;;;;;;;142.20;18.83;;;;;;;-143.10;30.41;50736.59;5027450;28;20052;-68
2022/06/25 05:56:40;;;;;;;30.10;6.50;;;;;;;-143.10;31.06;50742.47;5045133;28;20044;-69
2022/06/25 05:59:22;;;;;;;35.38;8.00;;;;;;;-143.10;32.99;50736.59;5045397;28;20158;-69
2022/06/25 06:02:11;;;;;;;22.75;6.10;;;;;;;-143.10;31.88;50730.72;5045295;28;20099;-69
2022/06/25 06:04:54;;;;;;;19.55;5.80;;;;;;;-143.10;31.83;50742.47;5045941;28;20041;-70
2022/06/25 06:07:42;;;;;;;21.17;5.93;;;;;;;-143.10;32.86;50720.94;5045055;28;20159;-69
2022/06/25 06:10:31;;;;;;;33.15;8.00;;;;;;;-143.10;30.80;50744.44;5025348;28;20368;-69
2022/06/25 06:13:13;;;;;;;26.75;6.75;;;;;;;-143.10;31.00;50744.44;5038694;28;20055;-71
2022/06/25 06:16:02;;;;;;;32.95;6.60;;;;;;;-143.10;31.94;50736.59;5044982;28;20400;-69
2022/06/25 06:18:51;;;;;;;20.75;6.45;;;;;;;-143.10;35.67;50724.84;5044497;28;20140;-69
2022/06/25 06:21:33;;;;;;;27.70;7.22;;;;;;;-143.10;35.22;50748.34;5027990;28;20049;-68
2022/06/25 06:24:28;;;;;;;29.52;6.45;;;;;;;-143.10;34.04;50736.59;5044122;28;20045;-69
2022/06/25 06:27:16;;;;;;;32.53;7.60;;;;;;;-143.10;32.03;50754.22;5048988;27;20135;-69
2022/06/25 06:30:06;;;;;;;27.52;7.30;;;;;;;-143.10;31.59;50752.25;5044905;28;20083;-69
2022/06/25 06:32:48;;;;;;;32.05;7.07;;;;;;;-143.10;33.65;50730.72;5044499;28;20123;-68
2022/06/25 06:35:37;;;;;;;29.30;7.88;;;;;;;-143.10;31.34;50738.56;5044549;28;20052;-69
2022/06/25 06:38:19;;;;;;;34.03;6.32;;;;;;;-143.10;30.77;50752.25;5043368;28;20040;-70
2022/06/25 06:41:08;;;;;;;25.45;6.65;;;;;;;-143.10;33.53;50736.59;5044125;28;20718;-69
2022/06/25 06:43:51;;;;;;;26.02;7.57;;;;;;;-143.10;33.90;50760.09;5044726;28;20265;-70
2022/06/25 06:46:40;;;;;;;27.63;7.28;;;;;;;-143.10;34.38;50748.34;5028626;28;20048;-69
2022/06/25 06:49:29;;;;;;;23.95;8.00;;;;;;;-143.10;31.47;50736.59;5043833;28;20110;-70
2022/06/25 06:52:19;;;;;;;23.48;8.20;;;;;;;-143.10;32.74;50732.69;5026422;28;20103;-71
2022/06/25 06:55:09;;;;;;;24.10;7.10;;;;;;;-143.10;31.28;50752.25;5044180;28;20437;-69
2022/06/25 06:58:13;;;;;;;22.80;6.45;;;;;;;-143.10;34.61;50717.03;5044714;28;20094;-69
2022/06/25 07:01:02;;;;;;;30.42;6.53;;;;;;;-143.10;31.56;50742.47;5044203;28;20056;-68
2022/06/25 07:03:51;;;;;;;21.95;6.97;;;;;;;-143.10;31.60;50734.66;5044112;28;20048;-72
2022/06/25 07:06:33;;;;;;;26.88;7.78;;;;;;;-143.10;30.37;50713.09;5044283;28;20049;-69
2022/06/25 07:09:22;;;;;;;27.77;7.85;;;;;;;-143.10;31.85;50748.34;5043673;28;20045;-70
2022/06/25 07:12:04;;;;;;;25.40;6.75;;;;;;;-143.10;33.10;50732.69;5044023;28;20049;-69
2022/06/25 07:14:53;;;;;;;22.67;6.57;;;;;;;-143.10;29.97;50742.47;5042970;28;20056;-70
2022/06/25 07:17:35;;;;;;;29.70;7.10;;;;;;;-143.10;31.76;50744.44;5043506;28;20846;-70
2022/06/25 07:20:24;;;;;;;28.55;7.13;;;;;;;-143.10;34.26;50724.84;5043139;28;20051;-69
2022/06/25 07:23:19;;;;;;;25.23;7.13;;;;;;;-143.10;36.64;50742.47;5043681;28;20052;-69
2022/06/25 07:25:55;;;;;;;24.08;5.53;;;;;;;-143.10;38.79;50773.78;5043683;28;20045;-70
2022/06/25 07:28:53;;;;;;;21.73;6.22;;;;;;;-143.10;40.33;50744.44;5023751;28;20349;-69
2022/06/25 07:31:48;;;;;;;21.20;5.57;;;;;;;-143.10;35.36;50746.38;5044555;28;20597;-70
2022/06/25 07:34:44;;;;;;;20.90;5.93;;;;;;;-143.10;31.07;50764.00;5041921;28;20056;-68
2022/06/25 07:37:20;;;;;;;15.75;6.22;;;;;;;-143.10;33.37;50760.09;5026589;28;20611;-68
2022/06/25 07:40:09;;;;;;;;;;;;;;;-143.10;35.48;50722.91;5026224;28;20053;-68
2022/06/25 07:42:51;;;;;;;22.10;6.50;;;;;;;-143.10;35.66;50732.69;5043848;28;20370;-67
2022/06/25 07:45:46;;;;;;;26.30;7.35;;;;;;;-143.10;34.38;50720.94;5043629;28;20037;-68
2022/06/25 07:48:22;;;;;;;23.83;6.22;;;;;;;-143.10;33.55;50752.25;5043975;28;20107;-68
2022/06/25 07:54:11;;;;;;;19.17;5.55;;;;;;;-143.10;36.16;50740.50;5029200;28;20405;-68
2022/06/25 07:57:06;;;;;;;24.55;6.40;;;;;;;-143.10;37.79;50736.59;5029739;28;20119;-68
2022/06/25 07:59:42;;;;;;;26.27;6.72;;;;;;;-143.10;32.78;50687.66;5046954;28;20045;-69
2022/06/25 08:02:36;;;;;;;29.00;6.00;;;;;;;-143.10;32.63;50740.50;5046799;28;20049;-68
2022/06/25 08:05:12;;;;;;;21.10;5.68;;;;;;;-143.10;33.35;50740.50;5047081;28;20480;-69
2022/06/25 08:08:07;;;;;;;;;;;;;;;-143.10;32.34;50724.84;5047609;28;20750;-70
2022/06/25 08:10:43;;;;;;;29.98;6.07;;;;;;;-143.10;33.04;50744.44;5047395;28;19958;-69
2022/06/25 08:13:41;;;;;;;25.17;6.15;;;;;;;-143.10;33.29;50724.84;5047343;28;20103;-71
2022/06/25 08:16:16;;;;;;;23.75;6.50;;;;;;;-143.10;32.32;50762.06;5046495;28;20103;-69
2022/06/25 08:19:05;;;;;;;22.40;6.53;;;;;;;-143.10;33.48;50722.91;5029373;28;20057;-69
2022/06/25 08:21:54;;;;;;;29.25;7.32;;;;;;;-143.10;32.75;50736.59;5045084;28;20103;-68
2022/06/25 08:24:36;;;;;;;30.40;6.70;;;;;;;-143.10;32.42;50748.34;5045656;28;20127;-67
2022/06/25 08:27:25;;;;;;;28.08;6.68;;;;;;;-143.10;32.98;50732.69;5044593;28;20045;-67
2022/06/25 08:30:14;;;;;;;25.00;7.13;;;;;;;-143.10;32.28;50740.50;5048420;28;20060;-68
2022/06/25 08:33:09;;;;;;;23.58;7.40;;;;;;;-143.10;32.46;50701.38;5037345;28;20041;-69
2022/06/25 08:35:44;;;;;;;24.27;6.03;;;;;;;-143.10;34.53;50742.47;5026234;28;20578;-68
2022/06/25 08:38:33;;;;;;;19.45;5.93;;;;;;;-143.10;34.70;50707.22;5026924;28;20073;-69
2022/06/25 08:41:16;;;;;;;;;;;;;;;-143.10;35.11;50730.72;5025982;28;20735;-69
2022/06/25 08:44:05;;;;;;;27.48;6.57;;;;;;;-143.10;35.04;50744.44;5026717;28;19925;-68
2022/06/25 08:46:56;;;;;;;20.35;5.22;;;;;;;-143.10;32.78;50707.22;5026335;28;20056;-68
2022/06/25 08:49:39;;;;;;;23.17;5.18;;;;;;;-143.10;33.87;50724.84;5033007;28;20482;-69
2022/06/25 08:52:28;;;;;;;25.08;6.35;;;;;;;-143.10;34.63;50724.84;5066119;28;20091;-69
2022/06/25 08:55:11;;;;;;;;;;;;;;;-143.10;32.90;50713.09;5066505;28;20353;-70
2022/06/25 08:58:01;;;;;;;24.70;6.97;;;;;;;-143.10;35.39;50697.44;5066754;28;19924;-69
2022/06/25 09:00:47;;;;;;;26.35;6.97;;;;;;;-143.10;34.97;50748.34;5065551;28;20256;-71
2022/06/25 09:03:37;;;;;;;19.55;6.03;;;;;;;-143.10;33.37;50713.09;5066072;28;20044;-70
2022/06/25 09:06:21;;;;;;;24.92;6.53;;;;;;;-143.10;33.72;50713.09;5065049;28;20055;-68
2022/06/25 09:09:15;;;;;;;24.15;6.05;;;;;;;-143.10;33.05;50728.78;5054445;28;20053;-68
2022/06/25 09:12:05;;;;;;;25.17;6.88;;;;;;;-143.10;34.81;50732.69;5045962;28;20542;-69
2022/06/25 09:14:54;;;;;;;18.17;5.45;;;;;;;-143.10;36.67;50726.81;5045882;28;20372;-69
2022/06/25 09:17:51;;;;;;;21.70;5.88;;;;;;;-143.10;36.51;50740.50;5045801;28;20367;-69
2022/06/25 09:20:42;;;;;;;32.50;5.95;;;;;;;-143.10;35.87;50744.44;5045213;28;20115;-69
2022/06/25 09:23:54;;;;;;;30.13;6.18;;;;;;;-143.10;35.82;50748.34;5044690;28;20041;-69
2022/06/25 09:26:57;;;;;;;18.98;6.38;;;;;;;-143.10;33.50;50705.28;5045563;28;20052;-69
2022/06/25 09:29:43;;;;;;;26.23;5.88;;;;;;;-143.10;35.30;50677.88;5045920;28;20049;-69
2022/06/25 09:32:51;;;;;;;22.67;5.70;;;;;;;-143.10;35.24;50717.03;5033202;28;20460;-69
2022/06/25 09:35:41;;;;;;;22.08;5.82;;;;;;;-143.10;36.57;50709.19;5045401;28;20064;-69
2022/06/25 09:38:30;;;;;;;35.78;6.78;;;;;;;-143.10;34.20;50715.06;5045110;28;20145;-69
2022/06/25 09:41:12;;;;;;;28.58;5.55;;;;;;;-143.10;34.29;50744.44;5045223;28;20106;-67
2022/06/25 09:44:01;;;;;;;19.13;5.47;;;;;;;-143.10;33.54;50705.28;5045474;28;20182;-69
2022/06/25 09:47:00;;;;;;;19.85;5.97;;;;;;;-143.10;35.13;50705.28;5045145;28;20048;-69
2022/06/25 09:49:49;;;;;;;21.40;5.00;;;;;;;-143.10;33.99;50681.78;5009537;28;20053;-68
2022/06/25 09:52:32;;;;;;;28.63;5.82;;;;;;;-143.10;34.58;50718.97;5024824;28;20068;-69
2022/06/25 09:55:29;;;;;;;21.10;6.47;;;;;;;-143.10;34.25;50732.69;5010497;28;20054;-69
2022/06/25 09:58:11;;;;;;;28.42;6.00;;;;;;;-143.10;34.95;50713.09;5008817;28;20380;-70
2022/06/25 10:01:03;;;;;;;18.63;5.38;;;;;;;-143.10;33.83;50699.41;5025235;28;20225;-69
2022/06/25 10:03:53;;;;;;;21.38;5.70;;;;;;;-143.10;34.30;50728.78;5024827;28;20111;-67
2022/06/25 10:06:45;;;;;;;27.17;7.72;;;;;;;-143.10;34.35;50752.25;5024993;28;20045;-69
2022/06/25 10:09:29;;;;;;;25.45;5.95;;;;;;;-143.10;35.13;50713.09;5051463;28;20059;-69
2022/06/25 10:12:18;;;;;;;27.08;7.22;;;;;;;-143.10;34.35;50722.91;5064258;28;20044;-69
2022/06/25 10:14:59;;;;;;;;;;;;;;;-143.10;35.75;50718.97;5065476;28;20048;-70
2022/06/25 10:17:54;;;;;;;21.52;5.53;;;;;;;-143.10;33.92;50748.34;5064325;28;20320;-69
2022/06/25 10:20:38;;;;;;;14.05;5.35;;;;;;;-143.10;34.51;50728.78;5064606;28;20117;-68
2022/06/25 10:23:28;;;;;;;18.00;6.22;;;;;;;-143.10;36.37;50742.47;5038481;28;20077;-69
2022/06/25 10:26:10;;;;;;;;;;;;;;;-143.10;35.30;50691.56;5044695;28;20620;-69
2022/06/25 10:28:59;;;;;;;32.75;7.13;;;;;;;-143.10;33.76;50738.56;5044909;28;19929;-69
2022/06/25 10:31:48;;;;;;;;;;;;;;;-143.10;35.70;50720.94;5046546;28;20176;-68
2022/06/25 10:34:43;;;;;;;25.88;6.05;;;;;;;-143.10;34.61;50697.44;5023995;28;20676;-71
2022/06/25 10:37:19;;;;;;;28.65;5.75;;;;;;;-143.10;34.49;50715.06;5024169;28;20051;-69
2022/06/25 10:40:14;;;;;;;;;;;;;;;-143.10;34.96;50718.97;5024856;28;20056;-68
2022/06/25 10:43:02;;;;;;;24.80;6.78;;;;;;;-143.10;35.14;50720.94;5024809;28;20693;-69
2022/06/25 10:45:56;;;;;;;23.60;6.00;;;;;;;-143.10;35.43;50724.84;5024626;28;20145;-70
2022/06/25 10:48:32;;;;;;;32.72;6.63;;;;;;;-143.10;35.08;50715.06;5024170;28;20681;-71
2022/06/25 10:51:38;;;;;;;21.65;6.30;;;;;;;-143.10;34.66;50732.69;5023895;28;20053;-66
2022/06/25 10:54:23;;;;;;;24.38;7.22;;;;;;;-143.10;35.43;50728.78;5023789;28;20056;-68
2022/06/25 10:57:17;;;;;;;16.02;6.45;;;;;;;-143.10;35.16;50713.09;5023705;28;20072;-68
2022/06/25 11:00:02;;;;;;;27.02;6.80;;;;;;;-143.10;34.73;50717.03;5023272;28;20064;-69
2022/06/25 11:03:00;;;;;;;24.05;8.13;;;;;;;-143.10;35.43;50720.94;5023806;28;20041;-67
2022/06/25 11:05:45;;;;;;;20.88;6.10;;;;;;;-143.10;35.04;50736.59;5003980;28;20498;-68
2022/06/25 11:08:42;;;;;;;33.83;5.97;;;;;;;-143.10;35.03;50732.69;5004213;28;20046;-68
2022/06/25 11:11:29;;;;;;;21.52;6.65;;;;;;;-143.10;35.75;50724.84;5003128;28;20056;-68
2022/06/25 11:14:22;;;;;;;21.02;6.22;;;;;;;-143.10;36.03;50724.84;5003836;28;20045;-68
2022/06/25 11:17:16;;;;;;;29.48;6.18;;;;;;;-143.10;37.52;50715.06;5001761;28;20060;-68
2022/06/25 11:20:06;;;;;;;26.50;5.90;;;;;;;-143.10;36.87;50724.84;5024398;28;20527;-69
2022/06/25 11:22:59;;;;;;;24.00;6.10;;;;;;;-143.10;36.72;50717.03;4999020;28;20153;-69
2022/06/25 11:28:58;;;;;;;25.83;7.32;;;;;;;-143.10;36.73;50709.19;4990907;28;20058;-69
2022/06/25 11:31:43;;;;;;;24.23;6.05;;;;;;;-143.10;36.20;50744.44;5008382;28;20042;-69
2022/06/25 11:34:39;;;;;;;31.23;6.40;;;;;;;-143.10;37.01;50701.38;5037718;28;20040;-69
2022/06/25 11:37:37;;;;;;;21.35;6.30;;;;;;;-143.10;37.24;50736.59;5043968;27;20369;-69
2022/06/25 11:40:28;;;;;;;26.88;6.07;;;;;;;-143.10;36.99;50724.84;5047514;28;20411;-68
2022/06/25 11:43:14;;;;;;;22.45;5.88;;;;;;;-143.10;37.16;50728.78;5029682;28;20136;-68
2022/06/25 11:46:03;;;;;;;25.35;6.43;;;;;;;-143.10;36.34;50728.78;5047825;28;20572;-68
2022/06/25 11:48:46;;;;;;;17.92;5.47;;;;;;;-143.10;38.37;50740.50;5035976;28;20053;-68
2022/06/25 11:51:35;;;;;;;28.10;6.57;;;;;;;-143.10;41.02;50701.38;5022127;28;20056;-70
2022/06/25 11:54:29;;;;;;;23.63;6.05;;;;;;;-143.10;40.28;50701.38;5047329;28;20053;-69
2022/06/25 11:57:18;;;;;;;31.45;6.43;;;;;;;-143.10;37.82;50717.03;5038738;28;20106;-69
2022/06/25 12:00:08;;;;;;;16.77;6.32;;;;;;;-143.10;37.12;50728.78;5047253;28;20045;-68
2022/06/25 12:03:02;;;;;;;26.90;6.00;;;;;;;-143.10;37.96;50701.38;5016218;28;20388;-66
2022/06/25 12:06:00;;;;;;;22.48;5.30;;;;;;;-143.10;37.79;50724.84;5032648;28;20130;-69
2022/06/25 12:08:43;;;;;;;26.58;5.65;;;;;;;-143.10;38.36;50736.59;5046961;28;20145;-67
2022/06/25 12:11:35;;;;;;;24.05;5.90;;;;;;;-143.10;38.21;50760.09;5046992;28;20056;-68
2022/06/25 12:14:32;;;;;;;21.98;6.00;;;;;;;-143.10;38.46;50697.44;5047139;28;20056;-69
2022/06/25 12:17:21;;;;;;;30.98;6.15;;;;;;;-143.10;40.51;50740.50;5046938;28;20190;-69
2022/06/25 12:20:11;;;;;;;24.77;5.88;;;;;;;-143.10;38.81;50744.44;5029411;28;20071;-71
2022/06/25 12:23:06;;;;;;;26.17;5.95;;;;;;;-143.10;37.88;50709.19;5044649;28;20059;-68
2022/06/25 12:25:55;;;;;;;28.40;6.30;;;;;;;-143.10;39.97;50738.56;5038478;28;20473;-69
2022/06/25 12:28:45;;;;;;;;;;;;;;;-143.10;39.21;50717.03;5026993;28;20048;-68
2022/06/25 12:31:34;;;;;;;17.38;5.65;;;;;;;-143.10;38.69;50732.69;5026646;28;19987;-68
2022/06/25 12:34:31;;;;;;;25.23;5.75;;;;;;;-143.10;38.64;50728.78;5026574;28;20069;-69
2022/06/25 12:37:33;;;;;;;21.17;5.90;;;;;;;-143.10;37.79;50709.19;5028582;28;20049;-68
2022/06/25 12:40:25;;;;;;;21.02;5.40;;;;;;;-143.10;38.36;50718.97;4997925;28;20103;-69
2022/06/25 12:43:10;;;;;;;27.98;6.13;;;;;;;-143.10;39.63;50734.66;5026486;28;20115;-68
2022/06/25 12:46:01;;;;;;;29.23;6.07;;;;;;;-143.10;38.97;50715.06;5027289;28;20049;-70
2022/06/25 12:49:00;;;;;;;28.75;6.40;;;;;;;-143.10;38.68;50720.94;5009100;28;20533;-69
2022/06/25 12:51:42;;;;;;;27.58;6.03;;;;;;;-143.10;39.61;50713.09;5008891;28;20048;-69
2022/06/25 12:54:49;;;;;;;32.30;5.82;;;;;;;-143.10;44.05;50732.69;4994300;28;20280;-68
2022/06/25 12:57:28;;;;;;;21.27;5.88;;;;;;;-143.10;43.67;50713.09;5026224;28;20048;-69
2022/06/25 13:00:23;;;;;;;23.10;5.53;;;;;;;-143.10;43.41;50756.19;5026229;28;20053;-69
2022/06/25 13:03:05;;;;;;;22.27;6.38;;;;;;;-143.10;41.43;50750.31;5026568;28;20424;-68